Accueil
METAR-TAF:

METAR-TAF

Aéroports :

Meiringen, Suisse

latitude: 46-44-25N, longitude: 8-06-36E, altitude: 577 m

Observation

Le bulletin a été fait il y a 28 minutes, à 18:50 UTC
Vent 11 kt de ouest/nord-ouest, variant entre ouest/sud-ouest et nord-ouest
Température 5°C
Humidité 87%
Pression 990 hPa
Visibilité 10 km ou plus
Quelques nuages à une hauteur de 1400 ft
Nuages épars à une hauteur de 2000 ft
Ciel couvert à une hauteur de 2600 ft
pluie

METAR: LSMM 111850Z AUTO 30011KT 250V320 9999NDV RA FEW014 SCT020 OVC026 05/03 Q0990 RMK

Heure: 20:18 (19:18 UTC)


TAF: absent

Observations et prévisions météorologiques de plus de 4000 aéroports (messages METAR et TAF).

Les stations disponibles sont représentées par des disques jaunes et rouges sur la carte.

Passer la souris dessus pour voir le nom de la station.

Cliquer dessus pour voir les observations et prévisions météorologiques.

Pour changer de carte: cliquez sur les boutons verts avec une croix noire pour zoomer, sur le bouton vert avec un tiret pour effectuer un zoom arrière, ou sur les flèches vertes pour les cartes adjacentes.


METAR-TAF: